This is the latest recevied weather packets stored in our database for station/object TA2EE-10. If no packets are shown the sender has not sent any weather packets the latest 1 day(s).
| Time | Temp. | Humidity | Pressure | Rain* | Wind** | Luminosity | Snow |
|---|---|---|---|---|---|---|---|
| 1778005587 | 18.89° C | 41% | 912 hPa | - | 0 m/s | 0 W/m² | - |
| 1778003465 | 18.89° C | 39% | 912 hPa | - | 0 m/s | 0 W/m² | - |
| 1778001342 | 20° C | 38% | 912 hPa | - | 0 m/s | 0 W/m² | - |
| 1778001275 | 20° C | 38% | 912 hPa | - | 0 m/s | 0 W/m² | - |
| 1777999153 | 25.56° C | 28% | 912 hPa | - | 0 m/s | 0 W/m² | - |
| 1777997031 | 25.56° C | 28% | 911 hPa | - | 0 m/s | 0 W/m² | - |
| 1777994909 | 26.67° C | 26% | 911 hPa | - | 0 m/s | 0 W/m² | - |
| 1777992787 | 27.22° C | 26% | 911 hPa | - | 0 m/s | 0 W/m² | - |
| 1777990665 | 26.67° C | 27% | 911 hPa | - | 0 m/s | 0 W/m² | - |
| 1777988543 | 26.11° C | 28% | 911 hPa | - | 0 m/s | 0 W/m² | - |
| 1777988139 | 25.56° C | 28% | 911 hPa | - | 0 m/s | 0 W/m² | - |
| 1777986016 | 25° C | 29% | 911 hPa | - | 0 m/s | 0 W/m² | - |
| 1777983894 | 22.78° C | 34% | 911 hPa | - | 0 m/s | 0 W/m² | - |
| 1777981772 | 19.44° C | 37% | 911 hPa | - | 0 m/s | 0 W/m² | - |
| 1777979650 | 19.44° C | 38% | 911 hPa | - | 0 m/s | 0 W/m² | - |
| 1777977528 | 20° C | 37% | 911 hPa | - | 0 m/s | 0 W/m² | - |
| 1777975406 | 21.11° C | 35% | 911 hPa | - | 0 m/s | 0 W/m² | - |
| 1777973282 | 21.11° C | 34% | 911 hPa | - | 0 m/s | 0 W/m² | - |
| 1777971161 | 21.67° C | 32% | 911 hPa | - | 0 m/s | 0 W/m² | - |
| 1777969037 | 22.78° C | 31% | 911 hPa | - | 0 m/s | 0 W/m² | - |
* Rain since midnight (hover to see other rain measurements)
** Current wind speed in m/s (hover to see current wind gust speed)